createdAt,value
2023-04-23T00:00:41.035Z,99841.34
2023-04-23T00:03:13.176Z,99836.44
2023-04-23T00:05:46.304Z,99833.56
2023-04-23T00:08:18.134Z,99834.84
2023-04-23T00:10:47.098Z,99832.13
2023-04-23T00:13:21.931Z,99823.41
2023-04-23T00:15:52.849Z,99826.88
2023-04-23T00:18:21.922Z,99820.69
2023-04-23T00:20:52.203Z,99828.00
2023-04-23T00:23:20.565Z,99826.69
2023-04-23T00:25:50.074Z,99826.34
2023-04-23T00:28:25.714Z,99831.25
2023-04-23T00:30:54.920Z,99828.00
2023-04-23T00:33:29.936Z,99833.59
2023-04-23T00:35:59.895Z,99836.59
2023-04-23T00:38:28.522Z,99832.06
2023-04-23T00:41:03.214Z,99831.94
2023-04-23T00:43:33.951Z,99829.19
2023-04-23T00:46:05.320Z,99829.94
2023-04-23T00:48:35.527Z,99828.75
2023-04-23T00:51:08.518Z,99832.03
2023-04-23T00:53:37.088Z,99832.34
2023-04-23T00:56:08.749Z,99831.47
2023-04-23T00:58:37.696Z,99826.63
2023-04-23T01:01:07.499Z,99818.94
2023-04-23T01:03:41.072Z,99825.13
2023-04-23T01:06:13.450Z,99820.94
2023-04-23T01:08:45.318Z,99823.69
2023-04-23T01:11:16.267Z,99826.91
2023-04-23T01:13:47.013Z,99830.16
2023-04-23T01:16:22.267Z,99826.19
2023-04-23T01:18:53.927Z,99820.81
2023-04-23T01:21:25.041Z,99823.06
2023-04-23T01:23:56.318Z,99826.53
2023-04-23T01:26:25.798Z,99825.69
2023-04-23T01:28:57.498Z,99827.88
2023-04-23T01:31:26.321Z,99820.66
2023-04-23T01:33:56.631Z,99831.16
2023-04-23T01:36:28.581Z,99826.13
2023-04-23T01:39:00.683Z,99828.53
2023-04-23T01:41:34.263Z,99829.63
2023-04-23T01:44:05.560Z,99820.19
2023-04-23T01:46:34.464Z,99824.44
2023-04-23T01:49:04.745Z,99824.84
2023-04-23T01:51:34.856Z,99829.09
2023-04-23T01:54:04.963Z,99826.38
2023-04-23T01:56:35.539Z,99820.00
2023-04-23T01:59:04.337Z,99815.81
2023-04-23T02:01:44.563Z,99820.56
2023-04-23T02:04:16.458Z,99816.59
2023-04-23T02:06:47.820Z,99811.34
2023-04-23T02:09:18.953Z,99807.44
2023-04-23T02:11:52.762Z,99813.97
2023-04-23T02:14:21.497Z,99810.00
2023-04-23T02:16:51.797Z,99809.06
2023-04-23T02:19:20.571Z,99812.50
2023-04-23T02:21:59.121Z,99812.34
2023-04-23T02:24:32.487Z,99807.47
2023-04-23T02:27:07.442Z,99810.22
2023-04-23T02:29:37.152Z,99809.50
2023-04-23T02:32:05.793Z,99819.03
2023-04-23T02:34:34.217Z,99809.59
2023-04-23T02:37:05.209Z,99813.03
2023-04-23T02:39:35.168Z,99812.13
2023-04-23T02:42:06.055Z,99806.75
2023-04-23T02:44:34.604Z,99816.22
2023-04-23T02:47:03.567Z,99801.66
2023-04-23T02:49:32.187Z,99801.97
2023-04-23T02:52:01.830Z,99806.66
2023-04-23T02:54:34.791Z,99805.81
2023-04-23T02:57:03.460Z,99801.91
2023-04-23T02:59:33.676Z,99806.75
2023-04-23T03:02:02.432Z,99805.78
2023-04-23T03:04:31.040Z,99810.31
2023-04-23T03:06:59.716Z,99809.25
2023-04-23T03:09:30.088Z,99808.00
2023-04-23T03:12:02.111Z,99806.13
2023-04-23T03:14:31.764Z,99808.16
2023-04-23T03:17:02.676Z,99809.94
2023-04-23T03:19:31.152Z,99813.06
2023-04-23T03:21:59.848Z,99807.44
2023-04-23T03:24:28.150Z,99812.81
2023-04-23T03:26:58.988Z,99813.84
2023-04-23T03:29:35.320Z,99819.31
2023-04-23T03:32:05.700Z,99821.59
2023-04-23T03:34:38.162Z,99821.50
2023-04-23T03:37:20.041Z,99821.09
2023-04-23T03:39:51.435Z,99821.34
2023-04-23T03:42:20.947Z,99826.47
2023-04-23T03:44:50.848Z,99821.22
2023-04-23T03:47:19.662Z,99824.97
2023-04-23T03:49:49.162Z,99831.81
2023-04-23T03:52:23.726Z,99822.16
2023-04-23T03:54:52.601Z,99824.25
2023-04-23T03:57:22.989Z,99821.38
2023-04-23T04:00:10.361Z,99825.28
2023-04-23T04:02:49.110Z,99825.16
2023-04-23T04:05:19.073Z,99825.50
2023-04-23T04:07:47.550Z,99820.78
2023-04-23T04:10:17.507Z,99824.66
2023-04-23T04:12:48.072Z,99818.06
2023-04-23T04:15:22.322Z,99818.78
2023-04-23T04:17:53.123Z,99820.69
2023-04-23T04:20:22.060Z,99812.91
2023-04-23T04:22:51.972Z,99813.31
2023-04-23T04:25:29.319Z,99816.56
2023-04-23T04:27:58.579Z,99813.59
2023-04-23T04:30:31.225Z,99812.75
2023-04-23T04:33:00.394Z,99812.91
2023-04-23T04:35:29.229Z,99805.28
2023-04-23T04:37:59.043Z,99806.13
2023-04-23T04:40:30.759Z,99819.31
2023-04-23T04:43:01.055Z,99823.19
2023-04-23T04:45:37.148Z,99826.56
2023-04-23T04:48:05.966Z,99825.41
2023-04-23T04:50:34.332Z,99826.84
2023-04-23T04:53:03.796Z,99832.00
2023-04-23T04:55:32.185Z,99836.63
2023-04-23T04:58:00.605Z,99826.34
2023-04-23T05:00:30.725Z,99831.56
2023-04-23T05:03:01.277Z,99836.00
2023-04-23T05:05:31.506Z,99833.56
2023-04-23T05:08:02.527Z,99831.69
2023-04-23T05:10:33.185Z,99833.88
2023-04-23T05:13:02.644Z,99839.13
2023-04-23T05:15:31.753Z,99839.75
2023-04-23T05:18:08.361Z,99845.72
2023-04-23T05:20:39.356Z,99839.28
2023-04-23T05:23:08.406Z,99836.47
2023-04-23T05:25:37.317Z,99848.28
2023-04-23T05:28:05.905Z,99845.78
2023-04-23T05:30:34.569Z,99854.38
2023-04-23T05:33:03.216Z,99858.44
2023-04-23T05:35:33.443Z,99857.41
2023-04-23T05:38:03.310Z,99859.81
2023-04-23T05:40:32.048Z,99870.19
2023-04-23T05:43:01.199Z,99866.41
2023-04-23T05:45:32.300Z,99863.53
2023-04-23T05:48:01.690Z,99870.47
2023-04-23T05:50:37.994Z,99871.94
2023-04-23T05:53:07.026Z,99865.47
2023-04-23T05:55:38.929Z,99860.03
2023-04-23T05:58:07.246Z,99864.09
2023-04-23T06:00:37.144Z,99864.22
2023-04-23T06:03:06.442Z,99861.94
2023-04-23T06:05:38.435Z,99853.09
2023-04-23T06:08:13.050Z,99866.56
2023-04-23T06:10:41.876Z,99867.50
2023-04-23T06:13:12.648Z,99869.91
2023-04-23T06:15:41.308Z,99867.41
2023-04-23T06:18:12.312Z,99865.72
2023-04-23T06:20:42.910Z,99869.81
2023-04-23T06:23:15.401Z,99872.63
2023-04-23T06:25:44.007Z,99872.63
2023-04-23T06:28:15.117Z,99875.88
2023-04-23T06:30:43.824Z,99885.09
2023-04-23T06:33:14.577Z,99884.19
2023-04-23T06:35:47.161Z,99892.94
2023-04-23T06:38:19.043Z,99892.59
2023-04-23T06:40:49.697Z,99892.06
2023-04-23T06:43:18.358Z,99900.19
2023-04-23T06:45:47.005Z,99898.75
2023-04-23T06:48:17.023Z,99897.56
2023-04-23T06:50:47.767Z,99896.97
2023-04-23T06:53:17.325Z,99907.47
2023-04-23T06:55:46.034Z,99904.22
2023-04-23T06:58:16.025Z,99905.50
2023-04-23T07:00:47.973Z,99908.13
2023-04-23T07:03:17.003Z,99912.31
2023-04-23T07:05:52.888Z,99897.19
2023-04-23T07:08:22.712Z,99911.53
2023-04-23T07:10:52.452Z,99909.53
2023-04-23T07:13:22.318Z,99914.53
2023-04-23T07:15:57.182Z,99913.00
2023-04-23T07:18:27.158Z,99913.63
2023-04-23T07:20:59.195Z,99912.09
2023-04-23T07:23:29.483Z,99916.41
2023-04-23T07:25:57.837Z,99924.63
2023-04-23T07:28:26.460Z,99921.81
2023-04-23T07:30:55.041Z,99919.34
2023-04-23T07:33:31.078Z,99916.84
2023-04-23T07:36:01.010Z,99920.53
2023-04-23T07:38:30.882Z,99918.75
2023-04-23T07:40:59.407Z,99916.25
2023-04-23T07:43:28.915Z,99911.47
2023-04-23T07:45:57.700Z,99917.91
2023-04-23T07:48:27.831Z,99914.44
2023-04-23T07:50:57.181Z,99919.47
2023-04-23T07:53:29.415Z,99924.00
2023-04-23T07:56:04.028Z,99929.03
2023-04-23T07:58:33.183Z,99932.50
2023-04-23T08:01:03.792Z,99937.75
2023-04-23T08:03:32.904Z,99935.72
2023-04-23T08:06:04.919Z,99930.94
2023-04-23T08:08:36.159Z,99927.63
2023-04-23T08:11:04.850Z,99927.97
2023-04-23T08:13:33.350Z,99927.63
2023-04-23T08:16:02.007Z,99925.78
2023-04-23T08:18:30.973Z,99930.34
2023-04-23T08:21:00.415Z,99927.69
2023-04-23T08:23:29.396Z,99927.94
2023-04-23T08:25:59.563Z,99915.94
2023-04-23T08:28:28.147Z,99908.31
2023-04-23T08:30:57.657Z,99913.81
2023-04-23T08:33:26.039Z,99907.09
2023-04-23T08:35:55.073Z,99902.16
2023-04-23T08:38:23.871Z,99906.00
2023-04-23T08:40:58.122Z,99903.06
2023-04-23T08:43:34.026Z,99904.25
2023-04-23T08:46:05.884Z,99898.22
2023-04-23T08:48:36.158Z,99892.47
2023-04-23T08:51:07.062Z,99889.28
2023-04-23T08:53:39.553Z,99891.75
2023-04-23T08:56:10.233Z,99883.19
2023-04-23T08:58:41.284Z,99871.72
2023-04-23T09:01:11.391Z,99878.47
2023-04-23T09:03:43.724Z,99881.16
2023-04-23T09:06:12.502Z,99870.28
2023-04-23T09:08:41.112Z,99872.38
2023-04-23T09:11:10.838Z,99864.59
2023-04-23T09:13:41.780Z,99864.53
2023-04-23T09:16:10.928Z,99864.16
2023-04-23T09:18:40.539Z,99879.88
2023-04-23T09:21:09.201Z,99882.22
2023-04-23T09:23:41.558Z,99878.47
2023-04-23T09:26:10.294Z,99876.78
2023-04-23T09:28:41.675Z,99868.75
2023-04-23T09:31:10.594Z,99884.50
2023-04-23T09:33:39.144Z,99884.34
2023-04-23T09:36:11.958Z,99868.78
2023-04-23T09:38:42.933Z,99883.22
2023-04-23T09:41:23.418Z,99883.50
2023-04-23T09:43:54.913Z,99898.50
2023-04-23T09:46:38.273Z,99901.41
2023-04-23T09:49:07.976Z,99900.44
2023-04-23T09:51:39.777Z,99888.59
2023-04-23T09:54:14.412Z,99887.50
2023-04-23T09:56:43.434Z,99887.13
2023-04-23T09:59:46.715Z,99887.16
2023-04-23T10:02:16.844Z,99896.09
2023-04-23T10:04:47.107Z,99901.19
2023-04-23T10:07:20.273Z,99902.41
2023-04-23T10:09:49.515Z,99912.84
2023-04-23T10:14:54.619Z,99914.66
2023-04-23T10:17:23.116Z,99907.00
2023-04-23T10:19:53.405Z,99908.81
2023-04-23T10:22:24.410Z,99912.13
2023-04-23T10:24:58.807Z,99917.28
2023-04-23T10:27:44.633Z,99911.44
2023-04-23T10:30:22.315Z,99906.44
2023-04-23T10:32:51.761Z,99912.69
2023-04-23T10:35:20.584Z,99909.88
2023-04-23T10:37:51.244Z,99910.38
2023-04-23T10:40:23.389Z,99921.03
2023-04-23T10:42:52.753Z,99931.75
2023-04-23T10:45:25.243Z,99931.03
2023-04-23T10:47:56.798Z,99934.50
2023-04-23T10:50:27.046Z,99926.88
2023-04-23T10:52:58.533Z,99939.41
2023-04-23T10:55:30.121Z,99940.16
2023-04-23T10:58:06.122Z,99933.09
2023-04-23T11:00:47.407Z,99929.44
2023-04-23T11:03:33.458Z,99933.13
2023-04-23T11:06:05.872Z,99936.88
2023-04-23T11:08:37.073Z,99949.72
2023-04-23T11:11:10.198Z,99951.09
2023-04-23T11:13:54.320Z,99952.50
2023-04-23T11:16:25.352Z,99953.31
2023-04-23T11:18:58.376Z,99959.69
2023-04-23T11:22:03.683Z,99975.75
2023-04-23T11:24:33.623Z,99971.94
2023-04-23T11:27:02.965Z,99983.38
2023-04-23T11:29:34.659Z,99989.06
2023-04-23T11:32:05.869Z,99997.84
2023-04-23T11:34:38.220Z,99990.16
2023-04-23T11:37:07.242Z,99989.38
2023-04-23T11:39:36.156Z,99997.88
2023-04-23T11:42:06.881Z,99988.06
2023-04-23T11:44:35.686Z,99981.53
2023-04-23T11:47:06.426Z,99990.06
2023-04-23T11:49:34.677Z,99991.16
2023-04-23T11:52:03.169Z,99982.81
2023-04-23T11:54:31.998Z,99984.06
2023-04-23T11:57:00.882Z,99985.31
2023-04-23T11:59:29.904Z,99981.41
2023-04-23T12:02:00.068Z,99982.63
2023-04-23T12:04:32.461Z,99975.56
2023-04-23T12:07:05.790Z,99969.13
2023-04-23T12:09:39.358Z,99963.28
2023-04-23T12:12:07.983Z,99962.31
2023-04-23T12:14:36.308Z,99961.47
2023-04-23T12:17:11.794Z,99969.75
2023-04-23T12:19:45.165Z,99957.97
2023-04-23T12:22:13.768Z,99945.97
2023-04-23T12:24:51.719Z,99946.31
2023-04-23T12:27:22.830Z,99947.22
2023-04-23T12:30:00.857Z,99941.41
2023-04-23T12:32:29.762Z,99942.91
2023-04-23T12:35:00.593Z,99953.63
2023-04-23T12:37:32.010Z,99953.63
2023-04-23T12:40:01.060Z,99953.97
2023-04-23T12:42:29.806Z,99955.59
2023-04-23T12:45:07.824Z,99952.22
2023-04-23T12:47:36.989Z,99964.19
2023-04-23T12:50:08.700Z,99963.75
2023-04-23T12:52:38.351Z,99964.25
2023-04-23T12:55:07.800Z,99965.72
2023-04-23T12:57:36.574Z,99959.69
2023-04-23T13:00:06.316Z,99954.06
2023-04-23T13:02:34.822Z,99962.91
2023-04-23T13:05:03.314Z,99958.50
2023-04-23T13:07:33.218Z,99961.88
2023-04-23T13:10:01.877Z,99963.25
2023-04-23T13:12:30.658Z,99964.06
2023-04-23T13:15:00.146Z,99974.94
2023-04-23T13:17:28.709Z,99973.88
2023-04-23T13:19:58.540Z,99982.47
2023-04-23T13:22:29.315Z,99989.69
2023-04-23T13:25:00.598Z,99997.13
2023-04-23T13:27:31.247Z,100004.59
2023-04-23T13:30:00.192Z,100004.09
2023-04-23T13:32:32.459Z,100007.53
2023-04-23T13:35:05.484Z,100012.75
2023-04-23T13:37:34.267Z,100005.66
2023-04-23T13:40:04.563Z,100006.28
2023-04-23T13:42:34.485Z,100007.09
2023-04-23T13:45:05.241Z,100008.03
2023-04-23T13:47:35.245Z,100004.09
2023-04-23T13:50:07.006Z,99992.53
2023-04-23T13:52:35.414Z,99984.81
2023-04-23T13:55:07.983Z,99989.25
2023-04-23T13:57:36.361Z,99982.81
2023-04-23T14:00:05.673Z,99984.66
2023-04-23T14:02:49.045Z,99993.94
2023-04-23T14:05:18.164Z,99990.81
2023-04-23T14:07:46.656Z,100001.13
2023-04-23T14:10:16.939Z,99999.94
2023-04-23T14:12:46.084Z,99997.72
2023-04-23T14:15:14.932Z,99993.22
2023-04-23T14:17:44.521Z,100001.53
2023-04-23T14:20:15.810Z,100008.78
2023-04-23T14:22:45.196Z,100007.84
2023-04-23T14:25:26.009Z,100010.78
2023-04-23T14:27:57.986Z,100012.28
2023-04-23T14:30:28.146Z,100023.63
2023-04-23T14:32:57.468Z,100032.50
2023-04-23T14:35:39.561Z,100049.94
2023-04-23T14:38:11.594Z,100062.72
2023-04-23T14:40:41.984Z,100067.97
2023-04-23T14:43:15.502Z,100081.88
2023-04-23T14:45:44.547Z,100088.66
2023-04-23T14:48:12.804Z,100083.78
2023-04-23T14:50:41.138Z,100091.22
2023-04-23T14:53:10.820Z,100100.06
2023-04-23T14:55:43.418Z,100117.84
2023-04-23T14:58:12.144Z,100122.72
2023-04-23T15:00:41.492Z,100122.09
2023-04-23T15:03:11.876Z,100139.47
2023-04-23T15:05:42.036Z,100130.38
2023-04-23T15:08:10.452Z,100131.78
2023-04-23T15:10:38.946Z,100119.81
2023-04-23T15:13:18.525Z,100123.56
2023-04-23T15:15:53.384Z,100118.22
2023-04-23T15:18:21.946Z,100118.38
2023-04-23T15:20:50.514Z,100124.25
2023-04-23T15:23:21.534Z,100130.25
2023-04-23T15:25:51.545Z,100121.88
2023-04-23T15:28:21.853Z,100123.41
2023-04-23T15:30:50.422Z,100102.34
2023-04-23T15:33:21.812Z,100100.31
2023-04-23T15:35:51.276Z,100102.72
2023-04-23T15:38:20.522Z,100108.47
2023-04-23T15:40:49.936Z,100112.91
2023-04-23T15:43:19.103Z,100115.81
2023-04-23T15:45:50.295Z,100113.69
2023-04-23T15:48:19.043Z,100109.06
2023-04-23T15:50:47.946Z,100102.97
2023-04-23T15:53:16.554Z,100111.09
2023-04-23T15:55:45.218Z,100103.63
2023-04-23T15:58:14.097Z,100107.97
2023-04-23T16:00:42.648Z,100111.75
2023-04-23T16:03:15.717Z,100109.38
2023-04-23T16:05:45.028Z,100109.19
2023-04-23T16:08:14.610Z,100125.03
2023-04-23T16:10:43.201Z,100129.31
2023-04-23T16:13:11.900Z,100133.38
2023-04-23T16:15:40.408Z,100146.25
2023-04-23T16:18:13.229Z,100148.88
2023-04-23T16:20:41.832Z,100138.66
2023-04-23T16:23:11.867Z,100141.84
2023-04-23T16:25:40.586Z,100152.81
2023-04-23T16:28:09.070Z,100147.19
2023-04-23T16:30:37.577Z,100149.88
2023-04-23T16:33:06.777Z,100157.84
2023-04-23T16:35:37.472Z,100163.84
2023-04-23T16:38:06.130Z,100170.56
2023-04-23T16:40:35.144Z,100170.41
2023-04-23T16:43:03.408Z,100166.81
2023-04-23T16:45:32.254Z,100168.38
2023-04-23T16:48:00.856Z,100164.50
2023-04-23T16:50:29.106Z,100158.97
2023-04-23T16:52:59.882Z,100167.75
2023-04-23T16:55:28.748Z,100161.91
2023-04-23T16:57:57.180Z,100163.75
2023-04-23T17:00:27.097Z,100161.41
2023-04-23T17:02:55.763Z,100163.19
2023-04-23T17:05:25.201Z,100171.84
2023-04-23T17:07:54.026Z,100166.88
2023-04-23T17:10:24.342Z,100160.06
2023-04-23T17:12:54.528Z,100157.31
2023-04-23T17:15:23.886Z,100155.91
2023-04-23T17:17:53.254Z,100156.03
2023-04-23T17:20:22.253Z,100159.66
2023-04-23T17:22:51.201Z,100166.06
2023-04-23T17:25:19.781Z,100160.31
2023-04-23T17:27:49.894Z,100166.75
2023-04-23T17:30:18.636Z,100158.13
2023-04-23T17:32:47.221Z,100146.88
2023-04-23T17:35:16.048Z,100140.28
2023-04-23T17:37:44.376Z,100149.75
2023-04-23T17:40:13.409Z,100142.94
2023-04-23T17:42:42.032Z,100149.22
2023-04-23T17:45:13.082Z,100168.13
2023-04-23T17:47:41.961Z,100159.03
2023-04-23T17:50:12.188Z,100158.63
2023-04-23T17:52:41.927Z,100158.44
2023-04-23T17:55:10.762Z,100167.22
2023-04-23T17:57:39.334Z,100163.28
2023-04-23T18:00:14.242Z,100165.63
2023-04-23T18:02:43.172Z,100167.00
2023-04-23T18:05:14.291Z,100168.13
2023-04-23T18:07:43.915Z,100173.81
2023-04-23T18:10:13.432Z,100173.38
2023-04-23T18:12:41.891Z,100167.38
2023-04-23T18:15:14.387Z,100183.22
2023-04-23T18:17:44.992Z,100190.06
2023-04-23T18:20:16.354Z,100188.38
2023-04-23T18:22:45.417Z,100192.97
2023-04-23T18:25:14.069Z,100189.34
2023-04-23T18:27:43.790Z,100185.47
2023-04-23T18:30:15.654Z,100188.97
2023-04-23T18:32:50.286Z,100169.84
2023-04-23T18:35:23.034Z,100162.44
2023-04-23T18:37:56.960Z,100167.78
2023-04-23T18:40:25.898Z,100169.06
2023-04-23T18:42:54.660Z,100181.53
2023-04-23T18:45:26.879Z,100188.88
2023-04-23T18:48:00.976Z,100199.44
2023-04-23T18:50:42.283Z,100198.13
2023-04-23T18:53:15.057Z,100208.78
2023-04-23T18:55:45.910Z,100217.69
2023-04-23T18:58:19.319Z,100203.38
2023-04-23T19:00:49.376Z,100194.09
2023-04-23T19:03:25.908Z,100187.91
2023-04-23T19:06:01.509Z,100188.88
2023-04-23T19:08:32.409Z,100191.44
2023-04-23T19:11:00.860Z,100198.66
2023-04-23T19:13:36.445Z,100202.22
2023-04-23T19:16:16.586Z,100206.16
2023-04-23T19:18:53.085Z,100211.13
2023-04-23T19:21:21.651Z,100225.34
2023-04-23T19:23:51.930Z,100236.84
2023-04-23T19:26:37.327Z,100237.66
2023-04-23T19:29:08.421Z,100242.19
2023-04-23T19:31:39.052Z,100258.44
2023-04-23T19:34:08.465Z,100265.91
2023-04-23T19:36:39.930Z,100268.22
2023-04-23T19:39:08.699Z,100287.56
2023-04-23T19:41:40.019Z,100280.03
2023-04-23T19:44:14.324Z,100281.59
2023-04-23T19:46:54.523Z,100288.56
2023-04-23T19:49:56.586Z,100290.59
2023-04-23T19:52:43.444Z,100290.59
2023-04-23T19:55:13.506Z,100299.81
2023-04-23T19:57:43.140Z,100293.25
2023-04-23T20:00:15.569Z,100296.47
2023-04-23T20:02:46.366Z,100301.38
2023-04-23T20:05:15.195Z,100303.31
2023-04-23T20:07:46.665Z,100302.56
2023-04-23T20:10:17.616Z,100312.28
2023-04-23T20:12:46.952Z,100316.22
2023-04-23T20:15:15.702Z,100323.31
2023-04-23T20:17:48.351Z,100325.94
2023-04-23T20:20:18.821Z,100316.47
2023-04-23T20:22:48.343Z,100325.31
2023-04-23T20:25:17.325Z,100326.50
2023-04-23T20:27:48.289Z,100324.84
2023-04-23T20:30:20.485Z,100327.13
2023-04-23T20:32:50.554Z,100334.84
2023-04-23T20:35:20.064Z,100339.63
2023-04-23T20:37:48.524Z,100343.22
2023-04-23T20:40:17.386Z,100341.91
2023-04-23T20:42:46.781Z,100351.47
2023-04-23T20:45:15.253Z,100352.66
2023-04-23T20:47:44.659Z,100351.81
2023-04-23T20:50:15.731Z,100362.34
2023-04-23T20:52:45.331Z,100359.50
2023-04-23T20:55:15.050Z,100367.91
2023-04-23T20:57:43.703Z,100371.75
2023-04-23T21:00:14.640Z,100368.66
2023-04-23T21:02:43.575Z,100381.72
2023-04-23T21:05:14.968Z,100385.19
2023-04-23T21:07:44.751Z,100379.91
2023-04-23T21:10:13.252Z,100376.84
2023-04-23T21:12:43.505Z,100379.47
2023-04-23T21:15:14.057Z,100381.97
2023-04-23T21:17:42.825Z,100380.31
2023-04-23T21:20:12.151Z,100383.78
2023-04-23T21:22:42.192Z,100387.97
2023-04-23T21:25:11.268Z,100384.47
2023-04-23T21:27:40.179Z,100380.19
2023-04-23T21:30:19.190Z,100380.06
2023-04-23T21:32:48.297Z,100380.78
2023-04-23T21:35:16.698Z,100387.72
2023-04-23T21:37:46.984Z,100384.03
2023-04-23T21:40:15.469Z,100383.91
2023-04-23T21:42:45.864Z,100384.41
2023-04-23T21:45:14.944Z,100391.97
2023-04-23T21:47:43.376Z,100387.75
2023-04-23T21:50:13.560Z,100387.66
2023-04-23T21:52:44.446Z,100384.88
2023-04-23T21:55:14.717Z,100389.31
2023-04-23T21:57:43.480Z,100386.69
2023-04-23T22:00:14.495Z,100392.09
2023-04-23T22:02:46.820Z,100394.81
2023-04-23T22:05:20.268Z,100383.44
2023-04-23T22:07:52.905Z,100386.19
2023-04-23T22:10:24.975Z,100389.19
2023-04-23T22:12:53.572Z,100395.28
2023-04-23T22:15:22.260Z,100388.22
2023-04-23T22:17:51.373Z,100388.72
2023-04-23T22:20:23.809Z,100382.47
2023-04-23T22:22:52.246Z,100385.25
2023-04-23T22:25:21.058Z,100392.19
2023-04-23T22:27:52.438Z,100390.38
2023-04-23T22:30:22.805Z,100400.00
2023-04-23T22:32:51.352Z,100394.59
2023-04-23T22:35:20.157Z,100401.66
2023-04-23T22:37:49.778Z,100388.63
2023-04-23T22:40:19.249Z,100396.75
2023-04-23T22:42:47.635Z,100398.75
2023-04-23T22:45:17.914Z,100395.63
2023-04-23T22:47:46.413Z,100403.41
2023-04-23T22:50:14.896Z,100393.63
2023-04-23T22:52:44.008Z,100398.97
2023-04-23T22:55:13.134Z,100402.50
2023-04-23T22:57:42.601Z,100407.97
2023-04-23T23:00:13.128Z,100414.22
2023-04-23T23:02:43.631Z,100417.41
2023-04-23T23:05:12.091Z,100419.91
2023-04-23T23:07:40.531Z,100419.69
2023-04-23T23:10:10.176Z,100419.91
2023-04-23T23:12:39.596Z,100424.00
2023-04-23T23:15:09.825Z,100424.41
2023-04-23T23:17:38.450Z,100429.09
2023-04-23T23:20:10.158Z,100439.72
2023-04-23T23:22:38.864Z,100436.03
2023-04-23T23:25:08.305Z,100431.28
2023-04-23T23:27:38.119Z,100436.41
2023-04-23T23:30:09.856Z,100426.22
2023-04-23T23:32:38.478Z,100430.66
2023-04-23T23:35:09.520Z,100430.91
2023-04-23T23:37:38.006Z,100434.47
2023-04-23T23:40:08.182Z,100429.19
2023-04-23T23:42:37.137Z,100433.88
2023-04-23T23:45:06.430Z,100437.44
2023-04-23T23:47:35.036Z,100434.09
2023-04-23T23:50:03.643Z,100443.53
2023-04-23T23:52:33.739Z,100435.63
2023-04-23T23:55:02.054Z,100432.41
2023-04-23T23:57:30.748Z,100432.41
2023-04-23T23:59:59.321Z,100434.22
